Time;durP1;ratioP1;P1;durP2;ratioP2;P2;SDS_P1;SDS_P2;PMS_P1;PMS_P2;Temp;Humidity;BMP_temperature;BMP_pressure;BME280_temperature;BME280_humidity;BME280_pressure;Samples;Min_cycle;Max_cycle;Signal;HPM_P1;HPM_P2
2022/03/15 07:58:41;;;;;;;17.98;10.40;;;;;;;8.50;72.43;102399.84;5322665;27;20346;-70
2022/03/15 08:01:12;;;;;;;15.43;9.00;;;;;;;8.55;70.82;102399.97;5300807;28;20044;-71
2022/03/15 08:03:43;;;;;;;15.40;8.48;;;;;;;8.51;69.84;102404.28;5300646;28;20483;-71
2022/03/15 08:06:15;;;;;;;16.10;8.50;;;;;;;8.57;69.27;102389.50;5301210;28;20074;-73
2022/03/15 08:08:46;;;;;;;10.52;7.75;;;;;;;8.70;71.10;102392.03;5301358;28;20115;-80
2022/03/15 08:11:17;;;;;;;13.43;8.18;;;;;;;8.61;69.19;102387.94;5300877;28;20375;-75
2022/03/15 08:13:49;;;;;;;12.40;9.15;;;;;;;8.68;68.40;102380.38;5300574;28;20375;-74
2022/03/15 08:16:22;;;;;;;12.45;8.80;;;;;;;8.73;68.55;102373.28;5300365;28;20844;-73
2022/03/15 08:18:54;;;;;;;17.35;9.43;;;;;;;8.80;68.18;102387.84;5300671;28;20063;-73
2022/03/15 08:21:26;;;;;;;11.95;7.55;;;;;;;8.77;68.56;102382.78;5300924;28;20139;-75
2022/03/15 08:23:57;;;;;;;14.70;8.02;;;;;;;8.86;68.10;102373.03;5298657;28;20024;-72
2022/03/15 08:26:29;;;;;;;13.90;7.80;;;;;;;8.93;67.85;102379.31;5289256;28;20036;-72
2022/03/15 08:29:00;;;;;;;18.45;8.10;;;;;;;8.90;67.77;102371.50;5300341;28;20078;-73
2022/03/15 08:31:32;;;;;;;14.20;8.75;;;;;;;8.95;67.89;102368.84;5300080;28;20035;-73
2022/03/15 08:34:03;;;;;;;13.73;7.70;;;;;;;9.00;67.88;102370.84;5300876;28;20077;-73
2022/03/15 08:36:36;;;;;;;11.25;7.75;;;;;;;8.99;67.59;102364.50;5300307;28;20024;-73
2022/03/15 08:39:07;;;;;;;17.02;7.43;;;;;;;9.06;67.34;102361.59;5299843;28;20028;-73
2022/03/15 08:41:39;;;;;;;10.90;7.50;;;;;;;9.08;67.12;102370.50;5300325;28;20013;-73
2022/03/15 08:44:11;;;;;;;15.57;11.18;;;;;;;9.16;66.36;102367.38;5300011;28;20408;-74
2022/03/15 08:46:44;;;;;;;13.45;7.70;;;;;;;9.09;66.82;102367.47;5300197;28;20048;-73
2022/03/15 08:49:17;;;;;;;12.15;8.20;;;;;;;9.16;66.45;102366.53;5300375;28;20031;-73
2022/03/15 08:51:49;;;;;;;14.30;6.95;;;;;;;9.22;66.48;102365.53;5299202;28;20028;-73
2022/03/15 08:54:22;;;;;;;15.13;8.38;;;;;;;9.20;67.16;102359.41;5300023;28;20028;-75
2022/03/15 08:56:54;;;;;;;97.68;75.85;;;;;;;9.52;69.57;102357.03;5305111;28;20044;-79
2022/03/15 08:59:25;;;;;;;16.85;11.45;;;;;;;9.44;66.08;102349.97;5320544;28;20045;-77
2022/03/15 09:01:57;;;;;;;13.57;7.53;;;;;;;9.38;66.35;102348.16;5320548;28;20020;-77
2022/03/15 09:04:28;;;;;;;12.88;7.43;;;;;;;9.40;66.33;102351.53;5320683;28;20028;-77
2022/03/15 09:07:00;;;;;;;11.23;7.78;;;;;;;9.44;65.83;102347.19;5319805;28;20030;-79
2022/03/15 09:09:31;;;;;;;11.07;5.78;;;;;;;9.47;65.75;102348.63;5309300;28;20103;-78
2022/03/15 09:12:03;;;;;;;12.02;6.28;;;;;;;9.46;65.88;102342.25;5306504;28;20486;-78
2022/03/15 09:14:35;;;;;;;11.88;6.18;;;;;;;9.52;65.81;102334.88;5306228;28;20051;-79
2022/03/15 09:17:06;;;;;;;12.55;6.32;;;;;;;9.55;65.65;102342.69;5306502;28;20115;-78
2022/03/15 09:19:40;;;;;;;13.85;7.25;;;;;;;9.54;65.52;102333.56;5304342;28;20043;-78
2022/03/15 09:22:11;;;;;;;10.90;6.18;;;;;;;9.57;65.46;102344.13;5305281;28;20016;-78
2022/03/15 09:24:43;;;;;;;16.38;6.95;;;;;;;9.57;65.64;102355.22;5306593;28;20498;-78
2022/03/15 09:27:17;;;;;;;12.00;7.15;;;;;;;9.55;65.30;102351.00;5304917;28;20031;-75
2022/03/15 09:29:49;;;;;;;11.27;6.10;;;;;;;9.63;64.34;102345.06;5305755;28;20078;-78
2022/03/15 09:32:21;;;;;;;13.38;6.97;;;;;;;9.63;64.63;102349.78;5306657;28;20020;-77
2022/03/15 09:34:53;;;;;;;10.88;7.32;;;;;;;9.68;64.52;102352.66;5305100;28;20032;-78
2022/03/15 09:37:24;;;;;;;13.27;6.72;;;;;;;9.72;64.73;102353.84;5306060;28;20386;-79
2022/03/15 09:40:00;;;;;;;11.73;7.75;;;;;;;9.73;64.72;102342.50;5306350;28;20360;-79
2022/03/15 09:42:32;;;;;;;13.07;7.03;;;;;;;9.65;64.40;102347.59;5305569;28;20051;-79
2022/03/15 09:45:05;;;;;;;16.10;7.28;;;;;;;9.83;64.49;102350.16;5298761;28;20031;-79
2022/03/15 09:47:40;;;;;;;13.57;6.72;;;;;;;9.87;63.68;102351.38;5305409;28;20032;-78
2022/03/15 09:50:12;;;;;;;13.07;6.80;;;;;;;9.86;64.09;102343.28;5304579;28;20409;-78
2022/03/15 09:52:44;;;;;;;10.88;6.93;;;;;;;9.77;64.55;102351.19;5295953;28;20103;-78
2022/03/15 09:55:16;;;;;;;12.23;6.95;;;;;;;9.82;64.04;102344.88;5285986;28;20024;-78
2022/03/15 09:57:47;;;;;;;26.20;19.63;;;;;;;9.80;64.26;102342.38;5305401;28;20052;-79
2022/03/15 10:00:19;;;;;;;18.73;13.10;;;;;;;9.89;64.14;102346.41;5306102;28;20115;-79
2022/03/15 10:02:51;;;;;;;100.13;83.13;;;;;;;9.94;63.71;102342.88;5304907;28;20535;-78
2022/03/15 10:05:24;;;;;;;25.02;17.67;;;;;;;9.96;62.82;102337.94;5301788;28;20021;-78
2022/03/15 10:07:55;;;;;;;11.13;7.40;;;;;;;9.97;63.46;102345.16;5284543;28;20040;-78
2022/03/15 10:10:27;;;;;;;11.45;6.30;;;;;;;10.02;63.12;102331.38;5287976;28;20451;-78
2022/03/15 10:12:59;;;;;;;11.13;6.75;;;;;;;10.00;63.33;102322.50;5287672;28;20035;-79
2022/03/15 10:15:30;;;;;;;15.20;6.72;;;;;;;10.04;63.33;102325.59;5305880;28;20024;-78
2022/03/15 10:18:05;;;;;;;8.73;6.55;;;;;;;10.13;63.51;102324.13;5305119;28;20043;-78
2022/03/15 10:20:40;;;;;;;9.25;6.35;;;;;;;10.11;63.16;102327.13;5297558;28;20032;-78
2022/03/15 10:23:11;;;;;;;11.20;6.85;;;;;;;10.24;62.79;102318.47;5290731;28;20023;-78
2022/03/15 10:25:47;;;;;;;13.13;6.53;;;;;;;10.18;62.60;102321.44;5304987;28;20036;-78
2022/03/15 10:28:19;;;;;;;10.05;6.25;;;;;;;10.25;61.95;102322.06;5304654;28;20012;-79
2022/03/15 10:30:50;;;;;;;15.18;7.85;;;;;;;10.40;62.54;102315.97;5304925;28;20031;-78
2022/03/15 10:33:22;;;;;;;17.77;6.32;;;;;;;10.30;61.99;102316.66;5303870;28;20417;-78
2022/03/15 10:35:53;;;;;;;11.45;7.90;;;;;;;10.38;62.54;102307.94;5304114;28;20459;-78
2022/03/15 10:38:25;;;;;;;10.40;7.93;;;;;;;10.45;62.12;102307.75;5304641;28;20107;-78
2022/03/15 10:40:56;;;;;;;15.25;7.03;;;;;;;10.48;62.00;102301.72;5302875;28;20090;-77
2022/03/15 10:43:27;;;;;;;14.50;7.03;;;;;;;10.45;62.38;102299.41;5297052;28;20043;-76
2022/03/15 10:46:01;;;;;;;14.65;6.00;;;;;;;10.59;62.10;102295.22;5297962;28;20023;-77
2022/03/15 10:48:35;;;;;;;10.50;6.10;;;;;;;10.65;62.02;102290.56;5304197;28;20063;-77
2022/03/15 10:51:14;;;;;;;8.02;5.47;;;;;;;10.64;61.70;102284.19;5302251;28;20027;-78
2022/03/15 10:53:47;;;;;;;14.60;6.60;;;;;;;10.76;61.65;102288.78;5295076;28;20024;-77
2022/03/15 10:56:23;;;;;;;11.50;5.65;;;;;;;10.76;61.72;102284.09;5290647;28;20047;-76
2022/03/15 10:59:00;;;;;;;9.43;5.43;;;;;;;10.80;61.82;102282.47;5299150;28;20044;-77
2022/03/15 11:01:40;;;;;;;10.68;6.72;;;;;;;10.79;62.46;102269.69;5303936;28;20070;-75
2022/03/15 11:04:11;;;;;;;11.82;7.47;;;;;;;10.84;62.59;102278.09;5303576;28;20471;-76
2022/03/15 11:06:51;;;;;;;15.57;7.68;;;;;;;10.89;62.78;102271.78;5302836;28;20028;-78
2022/03/15 11:09:32;;;;;;;15.10;9.32;;;;;;;11.00;65.67;102269.97;5303397;28;20032;-76
2022/03/15 11:12:06;;;;;;;23.90;15.70;;;;;;;11.24;67.63;102271.38;5303079;28;20031;-70
2022/03/15 11:14:44;;;;;;;39.87;28.70;;;;;;;11.40;69.44;102265.97;5304066;28;20052;-72
2022/03/15 11:17:21;;;;;;;28.88;21.35;;;;;;;11.29;64.30;102262.25;5287037;28;20375;-77
2022/03/15 11:19:59;;;;;;;16.40;10.00;;;;;;;11.26;63.48;102258.06;5303450;28;20024;-75
2022/03/15 11:22:31;;;;;;;22.38;15.32;;;;;;;11.54;69.13;102253.38;5304529;28;20123;-77
2022/03/15 11:25:15;;;;;;;12.02;7.13;;;;;;;11.32;64.11;102248.72;5302257;28;20406;-75
2022/03/15 11:27:51;;;;;;;14.18;8.93;;;;;;;11.43;63.30;102246.88;5299055;28;20103;-76
2022/03/15 11:30:22;;;;;;;19.30;11.68;;;;;;;11.63;66.52;102248.16;5304629;28;20024;-81
2022/03/15 11:32:54;;;;;;;9.52;5.60;;;;;;;11.46;64.27;102239.97;5304381;28;20042;-75
2022/03/15 11:35:28;;;;;;;10.90;6.85;;;;;;;11.50;63.48;102230.84;5303606;28;20085;-80
2022/03/15 11:38:09;;;;;;;12.35;7.13;;;;;;;11.53;63.83;102223.94;5303786;28;20031;-77
2022/03/15 11:40:43;;;;;;;8.82;6.03;;;;;;;11.59;64.39;102220.09;5303399;28;20028;-78
2022/03/15 11:43:40;;;;;;;12.20;8.43;;;;;;;11.67;64.90;102219.59;5304020;28;20027;-76
2022/03/15 11:46:21;;;;;;;12.90;7.03;;;;;;;11.80;65.78;102218.31;5307751;28;20028;-80
2022/03/15 11:49:11;;;;;;;11.27;7.80;;;;;;;11.81;64.38;102222.81;5284951;28;20078;-81
2022/03/15 11:52:10;;;;;;;11.18;7.25;;;;;;;11.89;65.86;102213.16;5283547;28;20375;-80
2022/03/15 11:55:18;;;;;;;13.38;7.15;;;;;;;11.86;64.60;102202.53;5295139;28;20046;-78
2022/03/15 11:57:59;;;;;;;14.15;8.32;;;;;;;11.75;62.41;102199.66;5299670;28;20466;-78
2022/03/15 12:00:38;;;;;;;8.77;6.20;;;;;;;11.96;66.32;102200.72;5299981;28;20433;-76
2022/03/15 12:03:10;;;;;;;11.60;5.80;;;;;;;11.78;62.61;102192.72;5284670;28;20028;-80
2022/03/15 12:05:45;;;;;;;12.40;6.95;;;;;;;11.97;65.34;102187.66;5303434;28;20036;-80
2022/03/15 12:08:24;;;;;;;10.30;6.00;;;;;;;11.79;62.25;102188.88;5302959;28;20028;-80
2022/03/15 12:10:57;;;;;;;9.50;6.03;;;;;;;11.81;64.22;102186.66;5303203;28;20016;-79
2022/03/15 12:13:49;;;;;;;6.93;5.40;;;;;;;11.91;64.16;102174.78;5303936;28;20473;-79
2022/03/15 12:16:34;;;;;;;9.43;6.47;;;;;;;11.83;64.30;102183.59;5303454;28;20028;-77
2022/03/15 12:19:23;;;;;;;7.10;4.70;;;;;;;11.90;64.39;102178.69;5304227;28;20356;-78
2022/03/15 12:21:57;;;;;;;35.42;27.67;;;;;;;11.87;62.34;102182.00;5304538;28;20016;-78
2022/03/15 12:24:39;;;;;;;8.40;5.57;;;;;;;11.85;62.09;102173.06;5302998;28;20024;-78
2022/03/15 12:27:15;;;;;;;9.20;4.65;;;;;;;11.85;61.68;102164.72;5303951;28;20050;-77
2022/03/15 12:29:55;;;;;;;7.47;4.10;;;;;;;11.94;61.72;102168.72;5302677;28;20468;-77
2022/03/15 12:32:27;;;;;;;7.13;3.92;;;;;;;11.98;60.99;102169.00;5303589;28;20035;-79
2022/03/15 12:34:58;;;;;;;7.55;4.45;;;;;;;12.07;61.14;102168.25;5303386;28;20416;-80
2022/03/15 12:37:36;;;;;;;8.52;3.72;;;;;;;12.11;60.27;102169.38;5303108;28;20435;-79
2022/03/15 12:40:10;;;;;;;7.32;4.38;;;;;;;12.04;60.99;102168.81;5303701;28;20036;-78
2022/03/15 12:43:01;;;;;;;5.03;3.85;;;;;;;12.13;59.99;102164.41;5290637;28;20071;-79
2022/03/15 12:45:33;;;;;;;12.45;6.25;;;;;;;12.10;59.83;102161.31;5285134;28;20364;-79
2022/03/15 12:48:06;;;;;;;6.18;4.65;;;;;;;12.21;61.80;102157.50;5287170;28;20036;-80
2022/03/15 12:50:38;;;;;;;9.10;4.25;;;;;;;12.12;60.09;102165.50;5290059;28;20023;-74
2022/03/15 12:53:14;;;;;;;5.45;3.47;;;;;;;12.12;60.33;102159.94;5295999;28;20024;-80
2022/03/15 12:55:45;;;;;;;6.93;4.22;;;;;;;12.05;60.90;102151.00;5289192;28;20024;-80
2022/03/15 12:58:18;;;;;;;5.70;4.32;;;;;;;12.00;59.88;102150.97;5304329;28;20518;-77
2022/03/15 13:00:51;;;;;;;4.75;3.83;;;;;;;11.98;60.15;102149.56;5307774;28;20032;-76
2022/03/15 13:03:22;;;;;;;10.68;4.63;;;;;;;11.98;60.14;102150.38;5302712;28;20028;-78
2022/03/15 13:05:55;;;;;;;5.80;4.15;;;;;;;12.05;59.26;102147.38;5292319;28;20079;-77
2022/03/15 13:08:27;;;;;;;6.72;3.75;;;;;;;11.91;60.80;102147.00;5297668;28;20028;-76
2022/03/15 13:11:03;;;;;;;6.38;4.28;;;;;;;11.91;60.30;102147.00;5307206;28;20111;-77
2022/03/15 13:13:35;;;;;;;5.57;3.33;;;;;;;11.86;60.42;102149.72;5306053;28;20379;-74
2022/03/15 13:16:09;;;;;;;9.38;4.10;;;;;;;11.86;60.27;102153.38;5305856;28;20024;-74
2022/03/15 13:18:41;;;;;;;8.02;4.10;;;;;;;11.88;60.40;102151.16;5299702;28;20029;-75
2022/03/15 13:21:13;;;;;;;5.00;3.58;;;;;;;11.79;61.09;102146.34;5288477;28;20020;-75
2022/03/15 13:23:48;;;;;;;4.75;3.22;;;;;;;11.81;60.81;102135.78;5305384;28;20116;-75
2022/03/15 13:26:26;;;;;;;5.30;4.05;;;;;;;11.90;60.91;102129.47;5304956;28;20024;-74
2022/03/15 13:28:59;;;;;;;7.30;3.80;;;;;;;11.98;60.28;102130.94;5306785;28;20371;-73
2022/03/15 13:31:30;;;;;;;5.45;3.35;;;;;;;12.02;60.33;102126.50;5303443;28;20036;-73
2022/03/15 13:34:02;;;;;;;5.75;3.40;;;;;;;12.09;60.34;102129.03;5295799;28;20016;-73
2022/03/15 13:36:34;;;;;;;71.05;48.20;;;;;;;12.04;60.65;102123.44;5302818;28;20028;-73
2022/03/15 13:39:10;;;;;;;4.95;3.60;;;;;;;12.10;60.73;102125.19;5290343;28;20084;-73
2022/03/15 13:41:47;;;;;;;7.90;3.80;;;;;;;12.14;60.32;102127.16;5296965;28;20031;-74
2022/03/15 13:44:26;;;;;;;7.40;3.20;;;;;;;12.10;60.86;102127.97;5304943;28;20031;-73
2022/03/15 13:47:17;;;;;;;4.68;3.40;;;;;;;12.15;60.34;102126.03;5305467;28;20330;-75
2022/03/15 13:49:50;;;;;;;13.55;10.10;;;;;;;12.19;60.93;102126.31;5306782;28;20153;-75
2022/03/15 13:52:23;;;;;;;4.95;2.90;;;;;;;12.16;60.53;102127.69;5305345;28;20418;-72
2022/03/15 13:55:04;;;;;;;7.60;3.38;;;;;;;12.17;61.01;102134.94;5304038;28;20034;-72
2022/03/15 13:57:42;;;;;;;5.75;3.50;;;;;;;12.13;60.30;102131.03;5290848;28;20066;-74
2022/03/15 14:00:21;;;;;;;8.05;3.30;;;;;;;12.20;60.14;102136.34;5305846;28;20024;-74
2022/03/15 14:02:52;;;;;;;7.47;3.40;;;;;;;12.02;60.40;102136.81;5304625;28;20078;-76
2022/03/15 14:05:27;;;;;;;6.32;3.72;;;;;;;12.07;60.31;102140.44;5305508;28;20028;-75
2022/03/15 14:08:05;;;;;;;7.20;3.67;;;;;;;12.12;59.72;102148.81;5301717;28;20110;-74
2022/03/15 14:10:36;;;;;;;4.32;3.35;;;;;;;12.13;60.43;102147.72;5304338;28;20518;-73
2022/03/15 14:13:16;;;;;;;7.07;3.83;;;;;;;12.17;60.65;102150.81;5297704;28;20207;-79
2022/03/15 14:15:48;;;;;;;5.63;3.50;;;;;;;12.17;59.99;102151.63;5302554;28;20039;-79
2022/03/15 14:18:26;;;;;;;8.60;4.40;;;;;;;12.20;61.26;102143.88;5305456;28;20028;-77
2022/03/15 14:20:57;;;;;;;6.57;3.80;;;;;;;12.38;62.64;102140.63;5304802;28;20115;-76
2022/03/15 14:23:29;;;;;;;10.88;9.95;;;;;;;12.17;60.70;102137.72;5304165;28;20044;-78
2022/03/15 14:26:03;;;;;;;6.70;5.20;;;;;;;12.23;60.55;102129.41;5305280;28;20040;-75
2022/03/15 14:28:38;;;;;;;5.97;3.83;;;;;;;12.30;61.56;102132.81;5304953;28;20027;-76
2022/03/15 14:31:10;;;;;;;;;;;;;;;12.40;60.77;102122.56;5305034;28;20043;-76
2022/03/15 14:33:42;;;;;;;7.28;3.78;;;;;;;12.36;60.63;102112.22;5304679;28;19912;-75
2022/03/15 14:36:16;;;;;;;6.28;4.10;;;;;;;12.38;61.52;102112.81;5304775;28;20028;-76
2022/03/15 14:38:47;;;;;;;8.65;4.50;;;;;;;12.37;60.54;102119.47;5305334;28;20122;-79
2022/03/15 14:41:18;;;;;;;7.43;3.88;;;;;;;12.65;63.97;102117.34;5305729;28;20434;-79
2022/03/15 14:43:59;;;;;;;4.68;3.28;;;;;;;12.68;63.24;102122.38;5305201;28;20360;-79
2022/03/15 14:46:30;;;;;;;4.93;3.63;;;;;;;12.44;60.32;102117.28;5305300;28;20035;-80
2022/03/15 14:49:02;;;;;;;5.65;3.65;;;;;;;12.49;60.57;102116.47;5305547;28;20479;-79
2022/03/15 14:51:39;;;;;;;6.47;3.08;;;;;;;12.55;61.04;102116.22;5304356;28;20028;-80
2022/03/15 14:54:11;;;;;;;6.65;3.70;;;;;;;12.47;60.38;102111.16;5301949;28;20107;-80
2022/03/15 14:56:42;;;;;;;23.17;18.42;;;;;;;12.47;60.32;102110.34;5304540;28;20161;-79
2022/03/15 14:59:14;;;;;;;7.35;4.10;;;;;;;12.52;60.09;102102.00;5303559;28;20031;-80
2022/03/15 15:01:46;;;;;;;7.82;3.67;;;;;;;12.56;60.45;102114.28;5304715;28;20503;-79
2022/03/15 15:04:17;;;;;;;5.60;3.20;;;;;;;12.43;60.14;102104.47;5304252;28;20122;-80
2022/03/15 15:06:49;;;;;;;9.07;4.45;;;;;;;12.61;60.42;102106.78;5303008;28;20028;-78
2022/03/15 15:09:20;;;;;;;3.67;3.00;;;;;;;12.61;60.29;102104.00;5304179;28;20012;-78
2022/03/15 15:11:51;;;;;;;3.75;2.97;;;;;;;12.63;59.79;102109.28;5303423;28;20162;-77
2022/03/15 15:14:23;;;;;;;7.82;3.15;;;;;;;12.51;59.72;102103.97;5303199;28;20031;-73
2022/03/15 15:16:55;;;;;;;6.22;3.65;;;;;;;12.69;61.78;102112.94;5293283;28;20028;-79
2022/03/15 15:19:28;;;;;;;4.95;3.40;;;;;;;12.68;60.31;102103.75;5304049;28;20035;-79
2022/03/15 15:22:02;;;;;;;6.78;3.80;;;;;;;12.84;59.82;102110.19;5304022;28;20028;-80
2022/03/15 15:24:35;;;;;;;7.25;3.28;;;;;;;12.90;60.36;102109.09;5303631;28;20068;-79
2022/03/15 15:27:09;;;;;;;7.28;3.35;;;;;;;12.90;59.60;102108.25;5304149;28;20028;-80
2022/03/15 15:29:44;;;;;;;5.05;3.17;;;;;;;12.92;59.41;102104.09;5304924;28;20023;-80
2022/03/15 15:32:16;;;;;;;6.20;3.22;;;;;;;12.91;59.66;102113.56;5304203;28;20020;-79
2022/03/15 15:34:50;;;;;;;5.78;3.55;;;;;;;13.07;61.18;102108.03;5303032;28;20027;-80
2022/03/15 15:37:21;;;;;;;8.20;4.47;;;;;;;13.10;60.51;102096.31;5303968;28;20036;-79
2022/03/15 15:39:53;;;;;;;6.32;4.00;;;;;;;13.12;58.74;102100.50;5295869;28;20386;-73
2022/03/15 15:42:24;;;;;;;4.00;3.30;;;;;;;13.14;58.73;102100.22;5303605;28;20108;-71
2022/03/15 15:44:57;;;;;;;6.03;3.10;;;;;;;13.06;58.25;102098.81;5302771;28;20028;-71
2022/03/15 15:47:32;;;;;;;4.53;2.97;;;;;;;13.05;58.38;102100.75;5301923;28;20024;-79
2022/03/15 15:50:05;;;;;;;4.00;2.78;;;;;;;12.92;58.04;102094.91;5304418;28;20044;-79
2022/03/15 15:52:42;;;;;;;5.32;3.13;;;;;;;12.99;58.86;102093.53;5304245;28;20051;-78
2022/03/15 15:55:15;;;;;;;7.22;4.88;;;;;;;13.14;60.20;102091.84;5303310;28;20107;-78
2022/03/15 15:57:46;;;;;;;13.40;7.50;;;;;;;13.12;58.75;102097.72;5303204;28;20047;-80
2022/03/15 16:00:18;;;;;;;5.82;3.35;;;;;;;13.13;58.36;102101.34;5304041;28;20028;-80
2022/03/15 16:02:49;;;;;;;6.90;3.92;;;;;;;12.97;57.89;102098.53;5304680;28;20028;-79
2022/03/15 16:05:21;;;;;;;5.93;4.00;;;;;;;13.10;58.81;102101.91;5304079;28;20099;-81
2022/03/15 16:07:54;;;;;;;4.63;3.30;;;;;;;13.01;58.06;102099.66;5304306;28;20024;-80
2022/03/15 16:10:30;;;;;;;7.13;3.40;;;;;;;13.10;58.07;102099.09;5304062;28;20024;-79
2022/03/15 16:13:03;;;;;;;6.90;3.90;;;;;;;13.11;57.58;102097.97;5304126;28;20032;-79
2022/03/15 16:15:34;;;;;;;105.47;11.80;;;;;;;13.04;58.12;102103.84;5301730;28;20086;-78
2022/03/15 16:18:06;;;;;;;6.20;4.32;;;;;;;13.10;57.87;102104.69;5301065;28;20413;-78
2022/03/15 16:20:37;;;;;;;9.25;4.53;;;;;;;13.05;58.26;102100.75;5296850;28;20479;-81
2022/03/15 16:23:11;;;;;;;4.78;4.25;;;;;;;12.93;58.46;102113.25;5304140;28;20024;-77
2022/03/15 16:25:42;;;;;;;5.22;4.50;;;;;;;12.91;58.90;102098.78;5301162;28;20028;-79
2022/03/15 16:28:13;;;;;;;4.57;3.33;;;;;;;12.78;59.25;102116.84;5287820;28;20077;-78
2022/03/15 16:30:45;;;;;;;7.43;4.20;;;;;;;12.70;58.73;102109.03;5300227;28;20218;-76
2022/03/15 16:33:16;;;;;;;5.90;3.60;;;;;;;12.59;59.17;102109.00;5305697;28;20095;-79
2022/03/15 16:35:48;;;;;;;4.57;3.83;;;;;;;12.71;60.45;102107.94;5309516;28;20088;-77
2022/03/15 16:38:19;;;;;;;5.93;4.13;;;;;;;12.65;59.68;102103.44;5302206;28;20074;-79
2022/03/15 16:40:51;;;;;;;6.15;3.72;;;;;;;12.66;60.77;102103.19;5293296;28;20414;-77
2022/03/15 16:43:22;;;;;;;4.97;4.20;;;;;;;12.57;60.04;102100.06;5307085;28;20073;-77
2022/03/15 16:45:53;;;;;;;5.07;4.07;;;;;;;12.50;60.44;102102.28;5304867;28;20529;-79
2022/03/15 16:48:25;;;;;;;9.50;4.47;;;;;;;12.51;60.88;102112.31;5300417;28;20058;-79
2022/03/15 16:50:57;;;;;;;7.45;4.10;;;;;;;12.44;60.69;102108.94;5306495;28;20028;-80
2022/03/15 16:53:28;;;;;;;6.18;4.38;;;;;;;12.47;60.39;102107.53;5307146;28;20023;-75
2022/03/15 16:56:02;;;;;;;7.50;4.22;;;;;;;12.43;60.95;102103.66;5307486;28;20585;-79
2022/03/15 17:01:25;;;;;;;7.50;5.40;;;;;;;12.21;61.39;102113.00;5307497;28;20478;-71
2022/03/15 17:06:47;;;;;;;10.38;4.82;;;;;;;12.23;61.35;102121.06;5300428;28;20044;-72
2022/03/15 17:09:19;;;;;;;10.38;6.93;;;;;;;12.24;61.98;102114.41;5307150;28;20020;-72
2022/03/15 17:12:00;;;;;;;7.97;5.72;;;;;;;12.20;61.24;102116.88;5298806;28;20448;-72
2022/03/15 17:14:35;;;;;;;8.85;5.47;;;;;;;12.09;61.73;102121.56;5305051;28;20028;-72
2022/03/15 17:17:10;;;;;;;6.82;4.68;;;;;;;12.15;61.95;102122.44;5305034;28;20024;-73
2022/03/15 17:19:49;;;;;;;7.13;5.00;;;;;;;12.17;61.81;102123.81;5298280;28;20036;-73
2022/03/15 17:22:22;;;;;;;9.80;6.03;;;;;;;12.11;62.25;102126.84;5303816;28;20530;-73
2022/03/15 17:25:02;;;;;;;9.95;8.07;;;;;;;12.06;61.27;102133.19;5303810;28;20558;-73
2022/03/15 17:27:37;;;;;;;9.77;6.13;;;;;;;11.98;62.19;102122.59;5295121;28;20089;-71
